createdAt,value
2022-12-22T00:05:29.887Z,8.9
2022-12-22T00:15:30.356Z,8.9
2022-12-22T00:25:31.076Z,8.8
2022-12-22T00:35:31.782Z,8.9
2022-12-22T00:45:32.024Z,8.9
2022-12-22T00:55:32.791Z,8.9
2022-12-22T01:05:32.902Z,8.9
2022-12-22T01:15:33.911Z,9
2022-12-22T01:25:34.661Z,9
2022-12-22T01:55:35.663Z,9
2022-12-22T02:05:36.457Z,9
2022-12-22T02:15:36.984Z,9
2022-12-22T02:35:37.525Z,9
2022-12-22T02:55:38.479Z,9.1
2022-12-22T03:05:39.211Z,9.1
2022-12-22T03:15:39.849Z,9.2
2022-12-22T03:25:40.721Z,9.2
2022-12-22T03:35:41.573Z,9.2
2022-12-22T03:45:42.326Z,9.2
2022-12-22T04:05:42.910Z,9.3
2022-12-22T04:15:43.759Z,9.3
2022-12-22T04:35:44.159Z,9.4
2022-12-22T04:45:45.239Z,9.4
2022-12-22T04:55:45.926Z,9.5
2022-12-22T05:25:47.711Z,9.6
2022-12-22T05:35:47.975Z,9.6
2022-12-22T05:45:48.965Z,9.6
2022-12-22T05:55:49.469Z,9.5
2022-12-22T06:05:50.478Z,9.5
2022-12-22T06:25:51.271Z,9.5
2022-12-22T06:35:57.855Z,9.4
2022-12-22T06:55:53.449Z,9.5
2022-12-22T07:05:54.398Z,9.4
2022-12-22T07:16:00.423Z,9.4
2022-12-22T07:25:55.916Z,9.4
2022-12-22T07:35:56.766Z,9.4
2022-12-22T07:45:57.028Z,9.4
2022-12-22T07:55:57.196Z,9.4
2022-12-22T08:15:57.924Z,9.5
2022-12-22T08:25:58.362Z,9.5
2022-12-22T08:46:00.136Z,9.5
2022-12-22T08:56:00.505Z,9.5
2022-12-22T09:06:01.496Z,9.4
2022-12-22T09:16:02.334Z,9.4
2022-12-22T09:26:02.739Z,9.5
2022-12-22T09:36:03.142Z,9.6
2022-12-22T09:46:03.969Z,9.6
2022-12-22T09:56:04.739Z,9.8
2022-12-22T10:16:05.580Z,9.7
2022-12-22T10:36:06.410Z,9.6
2022-12-22T10:46:07.391Z,9.4
2022-12-22T10:56:07.522Z,9.4
2022-12-22T11:16:08.008Z,9
2022-12-22T11:36:09.421Z,9.3
2022-12-22T11:46:09.931Z,9.6
2022-12-22T11:56:10.951Z,9.6
2022-12-22T12:08:50.141Z,9.6
2022-12-22T12:16:20.253Z,9.4
2022-12-22T12:26:21.086Z,9.5
2022-12-22T12:36:21.676Z,9.7
2022-12-22T12:46:22.211Z,9.6
2022-12-22T12:56:22.363Z,9.3
2022-12-22T13:06:23.268Z,9.4
2022-12-22T13:16:24.147Z,9.6
2022-12-22T13:26:24.781Z,9.5
2022-12-22T13:36:25.459Z,9.5
2022-12-22T13:46:26.258Z,9.6
2022-12-22T13:56:27.195Z,9.6
2022-12-22T14:06:28.229Z,9.6
2022-12-22T14:17:32.791Z,9.6
2022-12-22T14:26:29.817Z,9.7
2022-12-22T14:36:30.672Z,9.7
2022-12-22T14:46:35.170Z,9.5
2022-12-22T14:56:31.665Z,9.4
2022-12-22T15:06:32.628Z,9.4
2022-12-22T15:16:33.008Z,9.4
2022-12-22T15:36:34.591Z,9.2
2022-12-22T15:56:35.525Z,9
2022-12-22T16:06:36.543Z,9
2022-12-22T16:16:36.740Z,8.9
2022-12-22T16:26:37.185Z,8.9
2022-12-22T16:36:38.260Z,8.9
2022-12-22T16:46:38.808Z,8.8
2022-12-22T16:56:38.925Z,8.8
2022-12-22T17:06:40.044Z,8.6
2022-12-22T17:16:40.165Z,8.4
2022-12-22T17:26:40.289Z,8.5
2022-12-22T17:36:40.990Z,8.4
2022-12-22T17:46:41.599Z,8.4
2022-12-22T17:56:41.613Z,8.4
2022-12-22T18:06:42.040Z,8.5
2022-12-22T18:16:42.603Z,8.6
2022-12-22T18:26:43.264Z,8.7
2022-12-22T18:36:44.320Z,8.7
2022-12-22T18:56:45.242Z,8.8
2022-12-22T19:06:45.636Z,8.9
2022-12-22T19:16:46.415Z,9
2022-12-22T19:26:46.728Z,9.1
2022-12-22T19:36:46.966Z,9.1
2022-12-22T19:46:47.251Z,9.3
2022-12-22T19:56:47.535Z,9.3
2022-12-22T20:06:48.437Z,9.4
2022-12-22T20:16:50.400Z,9.6
2022-12-22T20:26:54.009Z,9.6
2022-12-22T20:36:50.687Z,9.7
2022-12-22T20:46:51.291Z,9.8
2022-12-22T20:56:52.081Z,9.9
2022-12-22T21:06:52.344Z,10
2022-12-22T21:16:52.944Z,10
2022-12-22T21:26:52.933Z,10
2022-12-22T21:36:53.272Z,10
2022-12-22T21:46:54.002Z,10
2022-12-22T21:56:54.208Z,9.9
2022-12-22T22:06:54.918Z,9.9
2022-12-22T22:16:55.355Z,9.9
2022-12-22T22:26:55.716Z,9.9
2022-12-22T22:36:56.447Z,9.8
2022-12-22T22:46:56.684Z,9.9
2022-12-22T22:56:57.492Z,9.9
2022-12-22T23:06:57.699Z,9.9
2022-12-22T23:16:57.971Z,9.9
2022-12-22T23:26:58.982Z,9.9
2022-12-22T23:36:59.973Z,10
2022-12-22T23:47:00.328Z,10
2022-12-22T23:57:00.482Z,10.1
